sensor_id;sensor_type;location;lat;lon;timestamp;temperature;humidity
6666;DHT22;3369;49.906;8.598;2022-11-11T00:01:33;6.10;99.90
6666;DHT22;3369;49.906;8.598;2022-11-11T00:03:59;6.00;99.90
6666;DHT22;3369;49.906;8.598;2022-11-11T00:06:25;5.90;99.90
6666;DHT22;3369;49.906;8.598;2022-11-11T00:08:50;5.80;99.90
6666;DHT22;3369;49.906;8.598;2022-11-11T00:11:16;5.70;99.90
6666;DHT22;3369;49.906;8.598;2022-11-11T00:13:42;5.60;99.90
6666;DHT22;3369;49.906;8.598;2022-11-11T00:16:13;5.60;99.90
6666;DHT22;3369;49.906;8.598;2022-11-11T00:18:40;5.60;99.90
6666;DHT22;3369;49.906;8.598;2022-11-11T00:21:25;5.50;99.90
6666;DHT22;3369;49.906;8.598;2022-11-11T00:24:03;5.50;99.90
6666;DHT22;3369;49.906;8.598;2022-11-11T00:26:47;5.40;99.90
6666;DHT22;3369;49.906;8.598;2022-11-11T00:29:13;5.40;99.90
6666;DHT22;3369;49.906;8.598;2022-11-11T00:31:39;5.40;99.90
6666;DHT22;3369;49.906;8.598;2022-11-11T00:34:24;5.40;99.90
6666;DHT22;3369;49.906;8.598;2022-11-11T00:36:50;5.40;99.90
6666;DHT22;3369;49.906;8.598;2022-11-11T00:39:15;5.30;99.90
6666;DHT22;3369;49.906;8.598;2022-11-11T00:41:41;5.40;99.90
6666;DHT22;3369;49.906;8.598;2022-11-11T00:44:07;5.30;99.90
6666;DHT22;3369;49.906;8.598;2022-11-11T00:46:32;5.30;99.90
6666;DHT22;3369;49.906;8.598;2022-11-11T00:49:27;5.30;99.90
6666;DHT22;3369;49.906;8.598;2022-11-11T00:52:11;5.30;99.90
6666;DHT22;3369;49.906;8.598;2022-11-11T00:54:37;5.40;99.90
6666;DHT22;3369;49.906;8.598;2022-11-11T00:57:02;5.40;99.90
6666;DHT22;3369;49.906;8.598;2022-11-11T00:59:28;5.40;99.90
6666;DHT22;3369;49.906;8.598;2022-11-11T01:01:53;5.40;99.90
6666;DHT22;3369;49.906;8.598;2022-11-11T01:04:19;5.40;99.90
6666;DHT22;3369;49.906;8.598;2022-11-11T01:06:45;5.40;99.90
6666;DHT22;3369;49.906;8.598;2022-11-11T01:09:10;5.40;99.90
6666;DHT22;3369;49.906;8.598;2022-11-11T01:11:36;5.30;99.90
6666;DHT22;3369;49.906;8.598;2022-11-11T01:14:01;5.20;99.90
6666;DHT22;3369;49.906;8.598;2022-11-11T01:16:27;5.20;99.90
6666;DHT22;3369;49.906;8.598;2022-11-11T01:18:53;5.10;99.90
6666;DHT22;3369;49.906;8.598;2022-11-11T01:21:24;5.10;99.90
6666;DHT22;3369;49.906;8.598;2022-11-11T01:23:51;5.00;99.90
6666;DHT22;3369;49.906;8.598;2022-11-11T01:26:27;5.00;99.90
6666;DHT22;3369;49.906;8.598;2022-11-11T01:28:54;5.00;99.90
6666;DHT22;3369;49.906;8.598;2022-11-11T01:31:23;5.00;99.90
6666;DHT22;3369;49.906;8.598;2022-11-11T01:33:49;4.90;99.90
6666;DHT22;3369;49.906;8.598;2022-11-11T01:36:17;4.90;99.90
6666;DHT22;3369;49.906;8.598;2022-11-11T01:38:46;5.00;99.90
6666;DHT22;3369;49.906;8.598;2022-11-11T01:41:14;5.00;99.90
6666;DHT22;3369;49.906;8.598;2022-11-11T01:44:00;5.10;99.90
6666;DHT22;3369;49.906;8.598;2022-11-11T01:46:43;5.10;99.90
6666;DHT22;3369;49.906;8.598;2022-11-11T02:00:13;5.20;99.90
6666;DHT22;3369;49.906;8.598;2022-11-11T02:02:44;5.20;99.90
6666;DHT22;3369;49.906;8.598;2022-11-11T02:05:12;5.30;99.90
6666;DHT22;3369;49.906;8.598;2022-11-11T02:07:58;5.30;99.90
6666;DHT22;3369;49.906;8.598;2022-11-11T02:10:27;5.30;99.90
6666;DHT22;3369;49.906;8.598;2022-11-11T02:12:54;5.30;99.90
6666;DHT22;3369;49.906;8.598;2022-11-11T02:15:38;5.30;99.90
6666;DHT22;3369;49.906;8.598;2022-11-11T02:39:20;4.70;99.90
6666;DHT22;3369;49.906;8.598;2022-11-11T02:41:47;4.60;99.90
6666;DHT22;3369;49.906;8.598;2022-11-11T02:44:22;4.60;99.90
6666;DHT22;3369;49.906;8.598;2022-11-11T02:46:47;4.60;99.90
6666;DHT22;3369;49.906;8.598;2022-11-11T02:49:13;4.60;99.90
6666;DHT22;3369;49.906;8.598;2022-11-11T02:51:38;4.60;99.90
6666;DHT22;3369;49.906;8.598;2022-11-11T02:54:04;4.60;99.90
6666;DHT22;3369;49.906;8.598;2022-11-11T02:56:30;4.60;99.90
6666;DHT22;3369;49.906;8.598;2022-11-11T02:59:15;4.60;99.90
6666;DHT22;3369;49.906;8.598;2022-11-11T03:01:40;4.50;99.90
6666;DHT22;3369;49.906;8.598;2022-11-11T03:04:06;4.50;99.90
6666;DHT22;3369;49.906;8.598;2022-11-11T03:06:32;4.40;99.90
6666;DHT22;3369;49.906;8.598;2022-11-11T03:08:58;4.30;99.90
6666;DHT22;3369;49.906;8.598;2022-11-11T03:11:23;4.30;99.90
6666;DHT22;3369;49.906;8.598;2022-11-11T03:13:59;4.20;99.90
6666;DHT22;3369;49.906;8.598;2022-11-11T03:16:25;4.20;99.90
6666;DHT22;3369;49.906;8.598;2022-11-11T03:19:11;4.20;99.90
6666;DHT22;3369;49.906;8.598;2022-11-11T03:21:37;4.20;99.90
6666;DHT22;3369;49.906;8.598;2022-11-11T03:24:03;4.30;99.90
6666;DHT22;3369;49.906;8.598;2022-11-11T03:26:28;4.30;99.90
6666;DHT22;3369;49.906;8.598;2022-11-11T03:28:54;4.40;99.90
6666;DHT22;3369;49.906;8.598;2022-11-11T03:31:20;4.50;99.90
6666;DHT22;3369;49.906;8.598;2022-11-11T03:33:45;4.60;99.90
6666;DHT22;3369;49.906;8.598;2022-11-11T03:36:11;4.60;99.90
6666;DHT22;3369;49.906;8.598;2022-11-11T03:38:37;4.70;99.90
6666;DHT22;3369;49.906;8.598;2022-11-11T03:41:02;4.70;99.90
6666;DHT22;3369;49.906;8.598;2022-11-11T03:43:31;4.70;99.90
6666;DHT22;3369;49.906;8.598;2022-11-11T03:45:58;4.70;99.90
6666;DHT22;3369;49.906;8.598;2022-11-11T03:48:26;4.80;99.90
6666;DHT22;3369;49.906;8.598;2022-11-11T03:50:52;4.80;99.90
6666;DHT22;3369;49.906;8.598;2022-11-11T03:53:18;4.80;99.90
6666;DHT22;3369;49.906;8.598;2022-11-11T03:55:45;4.90;99.90
6666;DHT22;3369;49.906;8.598;2022-11-11T03:58:12;4.90;99.90
6666;DHT22;3369;49.906;8.598;2022-11-11T04:00:38;4.90;99.90
6666;DHT22;3369;49.906;8.598;2022-11-11T04:03:13;4.90;99.90
6666;DHT22;3369;49.906;8.598;2022-11-11T04:05:58;5.00;99.90
6666;DHT22;3369;49.906;8.598;2022-11-11T04:08:42;5.00;99.90
6666;DHT22;3369;49.906;8.598;2022-11-11T04:11:41;5.00;99.90
6666;DHT22;3369;49.906;8.598;2022-11-11T04:14:09;5.00;99.90
6666;DHT22;3369;49.906;8.598;2022-11-11T04:16:54;5.10;99.90
6666;DHT22;3369;49.906;8.598;2022-11-11T04:19:20;5.10;99.90
6666;DHT22;3369;49.906;8.598;2022-11-11T04:22:04;5.20;99.90
6666;DHT22;3369;49.906;8.598;2022-11-11T04:24:29;5.30;99.90
6666;DHT22;3369;49.906;8.598;2022-11-11T04:27:15;5.30;99.90
6666;DHT22;3369;49.906;8.598;2022-11-11T04:29:42;5.30;99.90
6666;DHT22;3369;49.906;8.598;2022-11-11T04:32:12;5.30;99.90
6666;DHT22;3369;49.906;8.598;2022-11-11T04:35:02;5.30;99.90
6666;DHT22;3369;49.906;8.598;2022-11-11T04:37:33;5.30;99.90
6666;DHT22;3369;49.906;8.598;2022-11-11T04:39:58;5.30;99.90
6666;DHT22;3369;49.906;8.598;2022-11-11T04:42:42;5.20;99.90
6666;DHT22;3369;49.906;8.598;2022-11-11T04:45:12;5.30;99.90
6666;DHT22;3369;49.906;8.598;2022-11-11T04:48:03;5.20;99.90
6666;DHT22;3369;49.906;8.598;2022-11-11T04:50:34;5.20;99.90
6666;DHT22;3369;49.906;8.598;2022-11-11T04:53:01;5.20;99.90
6666;DHT22;3369;49.906;8.598;2022-11-11T04:55:27;5.20;99.90
6666;DHT22;3369;49.906;8.598;2022-11-11T04:58:12;5.20;99.90
6666;DHT22;3369;49.906;8.598;2022-11-11T05:00:38;5.10;99.90
6666;DHT22;3369;49.906;8.598;2022-11-11T05:03:04;5.20;99.90
6666;DHT22;3369;49.906;8.598;2022-11-11T05:05:53;5.10;99.90
6666;DHT22;3369;49.906;8.598;2022-11-11T05:08:42;5.20;99.90
6666;DHT22;3369;49.906;8.598;2022-11-11T05:13:47;5.10;99.90
6666;DHT22;3369;49.906;8.598;2022-11-11T05:16:36;5.20;99.90
6666;DHT22;3369;49.906;8.598;2022-11-11T05:19:21;5.20;99.90
6666;DHT22;3369;49.906;8.598;2022-11-11T05:24:49;5.20;99.90
6666;DHT22;3369;49.906;8.598;2022-11-11T05:27:33;5.20;99.90
6666;DHT22;3369;49.906;8.598;2022-11-11T05:29:59;5.20;99.90
6666;DHT22;3369;49.906;8.598;2022-11-11T05:32:25;5.20;99.90
6666;DHT22;3369;49.906;8.598;2022-11-11T05:34:50;5.20;99.90
6666;DHT22;3369;49.906;8.598;2022-11-11T05:37:17;5.20;99.90
6666;DHT22;3369;49.906;8.598;2022-11-11T05:39:43;5.20;99.90
6666;DHT22;3369;49.906;8.598;2022-11-11T05:42:09;5.20;99.90
6666;DHT22;3369;49.906;8.598;2022-11-11T05:44:35;5.20;99.90
6666;DHT22;3369;49.906;8.598;2022-11-11T05:47:01;5.20;99.90
6666;DHT22;3369;49.906;8.598;2022-11-11T05:49:27;5.20;99.90
6666;DHT22;3369;49.906;8.598;2022-11-11T05:51:53;5.20;99.90
6666;DHT22;3369;49.906;8.598;2022-11-11T05:54:20;5.20;99.90
6666;DHT22;3369;49.906;8.598;2022-11-11T05:56:46;5.20;99.90
6666;DHT22;3369;49.906;8.598;2022-11-11T05:59:11;5.20;99.90
6666;DHT22;3369;49.906;8.598;2022-11-11T06:01:37;5.30;99.90
6666;DHT22;3369;49.906;8.598;2022-11-11T06:04:04;5.20;99.90
6666;DHT22;3369;49.906;8.598;2022-11-11T06:06:30;5.30;99.90
6666;DHT22;3369;49.906;8.598;2022-11-11T06:08:56;5.30;99.90
6666;DHT22;3369;49.906;8.598;2022-11-11T06:11:22;5.20;99.90
6666;DHT22;3369;49.906;8.598;2022-11-11T06:13:48;5.20;99.90
6666;DHT22;3369;49.906;8.598;2022-11-11T06:16:14;5.20;99.90
6666;DHT22;3369;49.906;8.598;2022-11-11T06:18:39;5.20;99.90
6666;DHT22;3369;49.906;8.598;2022-11-11T06:21:05;5.20;99.90
6666;DHT22;3369;49.906;8.598;2022-11-11T06:23:31;5.20;99.90
6666;DHT22;3369;49.906;8.598;2022-11-11T06:25:57;5.20;99.90
6666;DHT22;3369;49.906;8.598;2022-11-11T06:28:52;5.20;99.90
6666;DHT22;3369;49.906;8.598;2022-11-11T06:31:20;5.20;99.90
6666;DHT22;3369;49.906;8.598;2022-11-11T06:33:46;5.20;99.90
6666;DHT22;3369;49.906;8.598;2022-11-11T06:36:14;5.20;99.90
6666;DHT22;3369;49.906;8.598;2022-11-11T06:38:40;5.20;99.90
6666;DHT22;3369;49.906;8.598;2022-11-11T06:41:07;5.20;99.90
6666;DHT22;3369;49.906;8.598;2022-11-11T06:43:34;5.20;99.90
6666;DHT22;3369;49.906;8.598;2022-11-11T06:46:00;5.20;99.90
6666;DHT22;3369;49.906;8.598;2022-11-11T06:48:27;5.20;99.90
6666;DHT22;3369;49.906;8.598;2022-11-11T06:50:54;5.10;99.90
6666;DHT22;3369;49.906;8.598;2022-11-11T06:53:21;5.00;99.90
6666;DHT22;3369;49.906;8.598;2022-11-11T06:55:47;5.00;99.90
6666;DHT22;3369;49.906;8.598;2022-11-11T06:58:18;5.00;99.90
6666;DHT22;3369;49.906;8.598;2022-11-11T07:00:45;5.00;99.90
6666;DHT22;3369;49.906;8.598;2022-11-11T07:03:13;4.90;99.90
6666;DHT22;3369;49.906;8.598;2022-11-11T07:05:40;4.90;99.90
6666;DHT22;3369;49.906;8.598;2022-11-11T07:08:08;5.00;99.90
6666;DHT22;3369;49.906;8.598;2022-11-11T07:10:35;5.00;99.90
6666;DHT22;3369;49.906;8.598;2022-11-11T07:13:03;5.00;99.90
6666;DHT22;3369;49.906;8.598;2022-11-11T07:15:29;4.90;99.90
6666;DHT22;3369;49.906;8.598;2022-11-11T07:17:54;4.90;99.90
6666;DHT22;3369;49.906;8.598;2022-11-11T07:20:20;4.90;99.90
6666;DHT22;3369;49.906;8.598;2022-11-11T07:22:46;4.80;99.90
6666;DHT22;3369;49.906;8.598;2022-11-11T07:25:12;4.80;99.90
6666;DHT22;3369;49.906;8.598;2022-11-11T07:27:41;4.80;99.90
6666;DHT22;3369;49.906;8.598;2022-11-11T07:30:08;4.90;99.90
6666;DHT22;3369;49.906;8.598;2022-11-11T07:32:34;4.90;99.90
6666;DHT22;3369;49.906;8.598;2022-11-11T07:34:59;5.00;99.90
6666;DHT22;3369;49.906;8.598;2022-11-11T07:37:25;5.00;99.90
6666;DHT22;3369;49.906;8.598;2022-11-11T07:39:51;5.00;99.90
6666;DHT22;3369;49.906;8.598;2022-11-11T07:42:17;5.00;99.90
6666;DHT22;3369;49.906;8.598;2022-11-11T07:44:43;5.00;99.90
6666;DHT22;3369;49.906;8.598;2022-11-11T07:47:09;5.00;99.90
6666;DHT22;3369;49.906;8.598;2022-11-11T07:49:34;5.00;99.90
6666;DHT22;3369;49.906;8.598;2022-11-11T07:52:00;5.10;99.90
6666;DHT22;3369;49.906;8.598;2022-11-11T07:54:26;5.00;99.90
6666;DHT22;3369;49.906;8.598;2022-11-11T07:56:52;5.10;99.90
6666;DHT22;3369;49.906;8.598;2022-11-11T07:59:18;5.10;99.90
6666;DHT22;3369;49.906;8.598;2022-11-11T08:01:44;5.10;99.90
6666;DHT22;3369;49.906;8.598;2022-11-11T08:04:09;5.10;99.90
6666;DHT22;3369;49.906;8.598;2022-11-11T08:06:35;5.10;99.90
6666;DHT22;3369;49.906;8.598;2022-11-11T08:09:01;5.10;99.90
6666;DHT22;3369;49.906;8.598;2022-11-11T08:11:27;5.20;99.90
6666;DHT22;3369;49.906;8.598;2022-11-11T08:14:11;5.30;99.90
6666;DHT22;3369;49.906;8.598;2022-11-11T08:16:36;5.30;99.90
6666;DHT22;3369;49.906;8.598;2022-11-11T08:19:02;5.40;99.90
6666;DHT22;3369;49.906;8.598;2022-11-11T08:21:28;5.40;99.90
6666;DHT22;3369;49.906;8.598;2022-11-11T08:23:53;5.50;99.90
6666;DHT22;3369;49.906;8.598;2022-11-11T08:26:20;5.60;99.90
6666;DHT22;3369;49.906;8.598;2022-11-11T08:28:47;5.60;99.90
6666;DHT22;3369;49.906;8.598;2022-11-11T08:31:12;5.60;99.90
6666;DHT22;3369;49.906;8.598;2022-11-11T08:33:38;5.70;99.90
6666;DHT22;3369;49.906;8.598;2022-11-11T08:36:04;5.70;99.90
6666;DHT22;3369;49.906;8.598;2022-11-11T08:38:32;5.90;99.90
6666;DHT22;3369;49.906;8.598;2022-11-11T08:41:00;6.10;99.90
6666;DHT22;3369;49.906;8.598;2022-11-11T08:43:26;6.20;99.90
6666;DHT22;3369;49.906;8.598;2022-11-11T08:45:57;6.30;99.90
6666;DHT22;3369;49.906;8.598;2022-11-11T08:48:23;6.20;99.90
6666;DHT22;3369;49.906;8.598;2022-11-11T08:50:51;6.20;99.90
6666;DHT22;3369;49.906;8.598;2022-11-11T08:53:17;6.10;99.90
6666;DHT22;3369;49.906;8.598;2022-11-11T08:55:43;6.10;99.90
6666;DHT22;3369;49.906;8.598;2022-11-11T08:58:09;6.10;99.90
6666;DHT22;3369;49.906;8.598;2022-11-11T09:00:35;6.10;99.90
6666;DHT22;3369;49.906;8.598;2022-11-11T09:03:02;6.10;99.90
6666;DHT22;3369;49.906;8.598;2022-11-11T09:05:28;6.10;99.90
6666;DHT22;3369;49.906;8.598;2022-11-11T09:07:54;6.10;99.90
6666;DHT22;3369;49.906;8.598;2022-11-11T09:10:20;6.10;99.90
6666;DHT22;3369;49.906;8.598;2022-11-11T09:12:46;6.10;99.90
6666;DHT22;3369;49.906;8.598;2022-11-11T09:15:12;6.10;99.90
6666;DHT22;3369;49.906;8.598;2022-11-11T09:17:37;6.10;99.90
6666;DHT22;3369;49.906;8.598;2022-11-11T09:20:04;6.10;99.90
6666;DHT22;3369;49.906;8.598;2022-11-11T09:22:29;6.20;99.90
6666;DHT22;3369;49.906;8.598;2022-11-11T09:24:55;6.10;99.90
6666;DHT22;3369;49.906;8.598;2022-11-11T09:27:21;6.10;99.90
6666;DHT22;3369;49.906;8.598;2022-11-11T09:29:47;6.10;99.90
6666;DHT22;3369;49.906;8.598;2022-11-11T09:32:13;6.10;99.90
6666;DHT22;3369;49.906;8.598;2022-11-11T09:34:38;6.10;99.90
6666;DHT22;3369;49.906;8.598;2022-11-11T09:37:04;6.10;99.90
6666;DHT22;3369;49.906;8.598;2022-11-11T09:39:29;6.20;99.90
6666;DHT22;3369;49.906;8.598;2022-11-11T09:47:34;6.30;99.90
6666;DHT22;3369;49.906;8.598;2022-11-11T09:50:04;6.30;99.90
6666;DHT22;3369;49.906;8.598;2022-11-11T09:52:59;6.30;99.90
6666;DHT22;3369;49.906;8.598;2022-11-11T09:55:44;6.30;99.90
6666;DHT22;3369;49.906;8.598;2022-11-11T09:58:33;6.30;99.90
6666;DHT22;3369;49.906;8.598;2022-11-11T10:03:37;6.40;99.90
6666;DHT22;3369;49.906;8.598;2022-11-11T10:06:21;6.40;99.90
6666;DHT22;3369;49.906;8.598;2022-11-11T10:08:55;6.50;99.90
6666;DHT22;3369;49.906;8.598;2022-11-11T10:14:08;6.50;99.90
6666;DHT22;3369;49.906;8.598;2022-11-11T10:22:34;6.60;99.90
6666;DHT22;3369;49.906;8.598;2022-11-11T10:25:18;6.80;99.90
6666;DHT22;3369;49.906;8.598;2022-11-11T10:27:46;7.10;99.90
6666;DHT22;3369;49.906;8.598;2022-11-11T10:32:44;7.30;99.90
6666;DHT22;3369;49.906;8.598;2022-11-11T10:35:19;7.30;99.90
6666;DHT22;3369;49.906;8.598;2022-11-11T10:37:45;7.20;99.90
6666;DHT22;3369;49.906;8.598;2022-11-11T10:42:40;7.10;99.90
6666;DHT22;3369;49.906;8.598;2022-11-11T10:45:29;7.00;99.90
6666;DHT22;3369;49.906;8.598;2022-11-11T10:48:03;7.00;99.90
6666;DHT22;3369;49.906;8.598;2022-11-11T10:50:37;7.00;99.90
6666;DHT22;3369;49.906;8.598;2022-11-11T10:53:21;7.00;99.90
6666;DHT22;3369;49.906;8.598;2022-11-11T10:56:17;7.00;99.90
6666;DHT22;3369;49.906;8.598;2022-11-11T10:58:58;7.00;99.90
6666;DHT22;3369;49.906;8.598;2022-11-11T11:01:31;7.00;99.90
6666;DHT22;3369;49.906;8.598;2022-11-11T11:04:07;7.00;99.90
6666;DHT22;3369;49.906;8.598;2022-11-11T11:06:37;7.00;99.90
6666;DHT22;3369;49.906;8.598;2022-11-11T11:09:18;7.00;99.90
6666;DHT22;3369;49.906;8.598;2022-11-11T11:11:54;7.00;99.90
6666;DHT22;3369;49.906;8.598;2022-11-11T11:14:27;7.00;99.90
6666;DHT22;3369;49.906;8.598;2022-11-11T11:16:56;7.10;99.90
6666;DHT22;3369;49.906;8.598;2022-11-11T11:19:27;7.10;99.90
6666;DHT22;3369;49.906;8.598;2022-11-11T11:22:01;7.10;99.90
6666;DHT22;3369;49.906;8.598;2022-11-11T11:24:32;7.20;99.90
6666;DHT22;3369;49.906;8.598;2022-11-11T11:27:04;7.20;99.90
6666;DHT22;3369;49.906;8.598;2022-11-11T11:29:34;7.20;99.90
6666;DHT22;3369;49.906;8.598;2022-11-11T11:32:30;7.20;99.90
6666;DHT22;3369;49.906;8.598;2022-11-11T11:34:56;7.20;99.90
6666;DHT22;3369;49.906;8.598;2022-11-11T11:37:24;7.30;99.90
6666;DHT22;3369;49.906;8.598;2022-11-11T11:39:59;7.30;99.90
6666;DHT22;3369;49.906;8.598;2022-11-11T11:42:27;7.30;99.90
6666;DHT22;3369;49.906;8.598;2022-11-11T11:44:54;7.30;99.90
6666;DHT22;3369;49.906;8.598;2022-11-11T11:53:31;7.40;99.90
6666;DHT22;3369;49.906;8.598;2022-11-11T11:58:29;7.50;99.90
6666;DHT22;3369;49.906;8.598;2022-11-11T12:01:09;7.50;99.90
6666;DHT22;3369;49.906;8.598;2022-11-11T12:04:04;7.50;99.90
6666;DHT22;3369;49.906;8.598;2022-11-11T12:06:38;7.60;99.90
6666;DHT22;3369;49.906;8.598;2022-11-11T12:12:18;7.70;99.90
6666;DHT22;3369;49.906;8.598;2022-11-11T12:18:17;7.70;99.90
6666;DHT22;3369;49.906;8.598;2022-11-11T12:26:17;7.80;99.90
6666;DHT22;3369;49.906;8.598;2022-11-11T12:29:23;7.90;99.90
6666;DHT22;3369;49.906;8.598;2022-11-11T12:45:17;8.10;99.90
6666;DHT22;3369;49.906;8.598;2022-11-11T12:56:22;8.10;99.90
6666;DHT22;3369;49.906;8.598;2022-11-11T13:07:28;8.10;99.90
6666;DHT22;3369;49.906;8.598;2022-11-11T13:15:34;8.20;99.90
6666;DHT22;3369;49.906;8.598;2022-11-11T13:18:01;8.20;99.90
6666;DHT22;3369;49.906;8.598;2022-11-11T13:23:10;8.20;99.90
6666;DHT22;3369;49.906;8.598;2022-11-11T13:25:39;8.20;99.90
6666;DHT22;3369;49.906;8.598;2022-11-11T13:28:17;8.20;99.90
6666;DHT22;3369;49.906;8.598;2022-11-11T13:33:50;8.20;99.90
6666;DHT22;3369;49.906;8.598;2022-11-11T13:36:24;8.20;99.90
6666;DHT22;3369;49.906;8.598;2022-11-11T13:39:02;8.20;99.90
6666;DHT22;3369;49.906;8.598;2022-11-11T13:41:35;8.30;99.90
6666;DHT22;3369;49.906;8.598;2022-11-11T13:44:04;8.30;99.90
6666;DHT22;3369;49.906;8.598;2022-11-11T13:46:34;8.30;99.90
6666;DHT22;3369;49.906;8.598;2022-11-11T13:49:04;8.40;99.90
6666;DHT22;3369;49.906;8.598;2022-11-11T13:51:42;8.40;99.90
6666;DHT22;3369;49.906;8.598;2022-11-11T13:56:46;8.40;99.90
6666;DHT22;3369;49.906;8.598;2022-11-11T13:59:28;8.40;99.90
6666;DHT22;3369;49.906;8.598;2022-11-11T14:12:51;8.40;99.90
6666;DHT22;3369;49.906;8.598;2022-11-11T14:15:37;8.40;99.90
6666;DHT22;3369;49.906;8.598;2022-11-11T14:18:33;8.40;99.90
6666;DHT22;3369;49.906;8.598;2022-11-11T14:20:53;8.40;99.90
6666;DHT22;3369;49.906;8.598;2022-11-11T14:23:32;8.40;99.90
6666;DHT22;3369;49.906;8.598;2022-11-11T14:28:33;8.30;99.90
6666;DHT22;3369;49.906;8.598;2022-11-11T14:55:18;8.00;99.90
6666;DHT22;3369;49.906;8.598;2022-11-11T15:03:08;8.00;99.90
6666;DHT22;3369;49.906;8.598;2022-11-11T15:06:09;7.90;99.90
6666;DHT22;3369;49.906;8.598;2022-11-11T15:11:38;7.80;99.90
6666;DHT22;3369;49.906;8.598;2022-11-11T15:31:16;7.70;99.90
6666;DHT22;3369;49.906;8.598;2022-11-11T15:36:59;7.60;99.90
6666;DHT22;3369;49.906;8.598;2022-11-11T15:39:42;7.60;99.90
6666;DHT22;3369;49.906;8.598;2022-11-11T15:42:29;7.60;99.90
6666;DHT22;3369;49.906;8.598;2022-11-11T15:44:59;7.50;99.90
6666;DHT22;3369;49.906;8.598;2022-11-11T15:47:26;7.50;99.90
6666;DHT22;3369;49.906;8.598;2022-11-11T15:49:54;7.40;99.90
6666;DHT22;3369;49.906;8.598;2022-11-11T15:54:53;7.40;99.90
6666;DHT22;3369;49.906;8.598;2022-11-11T15:57:30;7.40;99.90
6666;DHT22;3369;49.906;8.598;2022-11-11T15:59:58;7.40;99.90
6666;DHT22;3369;49.906;8.598;2022-11-11T16:02:32;7.30;99.90
6666;DHT22;3369;49.906;8.598;2022-11-11T16:05:05;7.30;99.90
6666;DHT22;3369;49.906;8.598;2022-11-11T16:07:41;7.30;99.90
6666;DHT22;3369;49.906;8.598;2022-11-11T16:10:34;7.30;99.90
6666;DHT22;3369;49.906;8.598;2022-11-11T16:13:12;7.30;99.90
6666;DHT22;3369;49.906;8.598;2022-11-11T16:15:50;7.30;99.90
6666;DHT22;3369;49.906;8.598;2022-11-11T16:21:25;7.40;99.90
6666;DHT22;3369;49.906;8.598;2022-11-11T16:23:54;7.40;99.90
6666;DHT22;3369;49.906;8.598;2022-11-11T16:26:20;7.40;99.90
6666;DHT22;3369;49.906;8.598;2022-11-11T16:31:29;7.40;99.90
6666;DHT22;3369;49.906;8.598;2022-11-11T16:37:08;7.30;99.90
6666;DHT22;3369;49.906;8.598;2022-11-11T16:39:35;7.30;99.90
6666;DHT22;3369;49.906;8.598;2022-11-11T16:42:06;7.30;99.90
6666;DHT22;3369;49.906;8.598;2022-11-11T16:50:07;7.30;99.90
6666;DHT22;3369;49.906;8.598;2022-11-11T16:52:48;7.30;99.90
6666;DHT22;3369;49.906;8.598;2022-11-11T16:57:46;7.30;99.90
6666;DHT22;3369;49.906;8.598;2022-11-11T17:00:15;7.30;99.90
6666;DHT22;3369;49.906;8.598;2022-11-11T17:02:41;7.30;99.90
6666;DHT22;3369;49.906;8.598;2022-11-11T17:05:07;7.30;99.90
6666;DHT22;3369;49.906;8.598;2022-11-11T17:07:36;7.40;99.90
6666;DHT22;3369;49.906;8.598;2022-11-11T17:10:14;7.40;99.90
6666;DHT22;3369;49.906;8.598;2022-11-11T17:12:40;7.40;99.90
6666;DHT22;3369;49.906;8.598;2022-11-11T17:15:07;7.50;99.90
6666;DHT22;3369;49.906;8.598;2022-11-11T17:17:34;7.40;99.90
6666;DHT22;3369;49.906;8.598;2022-11-11T17:20:03;7.50;99.90
6666;DHT22;3369;49.906;8.598;2022-11-11T17:22:29;7.50;99.90
6666;DHT22;3369;49.906;8.598;2022-11-11T17:24:55;7.50;99.90
6666;DHT22;3369;49.906;8.598;2022-11-11T17:27:20;7.50;99.90
6666;DHT22;3369;49.906;8.598;2022-11-11T17:29:46;7.50;99.90
6666;DHT22;3369;49.906;8.598;2022-11-11T17:32:12;7.50;99.90
6666;DHT22;3369;49.906;8.598;2022-11-11T17:34:38;7.50;99.90
6666;DHT22;3369;49.906;8.598;2022-11-11T17:37:04;7.50;99.90
6666;DHT22;3369;49.906;8.598;2022-11-11T17:39:29;7.50;99.90
6666;DHT22;3369;49.906;8.598;2022-11-11T17:41:55;7.50;99.90
6666;DHT22;3369;49.906;8.598;2022-11-11T17:44:21;7.50;99.90
6666;DHT22;3369;49.906;8.598;2022-11-11T17:46:46;7.60;99.90
6666;DHT22;3369;49.906;8.598;2022-11-11T17:49:12;7.50;99.90
6666;DHT22;3369;49.906;8.598;2022-11-11T17:51:37;7.50;99.90
6666;DHT22;3369;49.906;8.598;2022-11-11T17:54:07;7.50;99.90
6666;DHT22;3369;49.906;8.598;2022-11-11T17:56:33;7.50;99.90
6666;DHT22;3369;49.906;8.598;2022-11-11T17:58:58;7.50;99.90
6666;DHT22;3369;49.906;8.598;2022-11-11T18:01:24;7.50;99.90
6666;DHT22;3369;49.906;8.598;2022-11-11T18:03:54;7.50;99.90
6666;DHT22;3369;49.906;8.598;2022-11-11T18:06:20;7.50;99.90
6666;DHT22;3369;49.906;8.598;2022-11-11T18:08:45;7.50;99.90
6666;DHT22;3369;49.906;8.598;2022-11-11T18:11:11;7.40;99.90
6666;DHT22;3369;49.906;8.598;2022-11-11T18:13:36;7.40;99.90
6666;DHT22;3369;49.906;8.598;2022-11-11T18:16:02;7.40;99.90
6666;DHT22;3369;49.906;8.598;2022-11-11T18:18:29;7.40;99.90
6666;DHT22;3369;49.906;8.598;2022-11-11T18:21:03;7.40;99.90
6666;DHT22;3369;49.906;8.598;2022-11-11T18:23:38;7.40;99.90
6666;DHT22;3369;49.906;8.598;2022-11-11T18:26:05;7.40;99.90
6666;DHT22;3369;49.906;8.598;2022-11-11T18:28:33;7.40;99.90
6666;DHT22;3369;49.906;8.598;2022-11-11T18:31:01;7.40;99.90
6666;DHT22;3369;49.906;8.598;2022-11-11T18:33:26;7.40;99.90
6666;DHT22;3369;49.906;8.598;2022-11-11T18:35:52;7.40;99.90
6666;DHT22;3369;49.906;8.598;2022-11-11T18:38:18;7.40;99.90
6666;DHT22;3369;49.906;8.598;2022-11-11T18:40:43;7.40;99.90
6666;DHT22;3369;49.906;8.598;2022-11-11T18:43:09;7.40;99.90
6666;DHT22;3369;49.906;8.598;2022-11-11T18:45:35;7.40;99.90
6666;DHT22;3369;49.906;8.598;2022-11-11T18:48:01;7.40;99.90
6666;DHT22;3369;49.906;8.598;2022-11-11T18:50:26;7.30;99.90
6666;DHT22;3369;49.906;8.598;2022-11-11T18:52:52;7.30;99.90
6666;DHT22;3369;49.906;8.598;2022-11-11T18:55:17;7.30;99.90
6666;DHT22;3369;49.906;8.598;2022-11-11T18:57:43;7.30;99.90
6666;DHT22;3369;49.906;8.598;2022-11-11T19:00:09;7.20;99.90
6666;DHT22;3369;49.906;8.598;2022-11-11T19:02:35;7.20;99.90
6666;DHT22;3369;49.906;8.598;2022-11-11T19:05:00;7.20;99.90
6666;DHT22;3369;49.906;8.598;2022-11-11T19:07:26;7.20;99.90
6666;DHT22;3369;49.906;8.598;2022-11-11T19:09:52;7.30;99.90
6666;DHT22;3369;49.906;8.598;2022-11-11T19:12:17;7.30;99.90
6666;DHT22;3369;49.906;8.598;2022-11-11T19:14:43;7.30;99.90
6666;DHT22;3369;49.906;8.598;2022-11-11T19:17:09;7.30;99.90
6666;DHT22;3369;49.906;8.598;2022-11-11T19:19:34;7.30;99.90
6666;DHT22;3369;49.906;8.598;2022-11-11T19:22:00;7.30;99.90
6666;DHT22;3369;49.906;8.598;2022-11-11T19:24:26;7.30;99.90
6666;DHT22;3369;49.906;8.598;2022-11-11T19:26:51;7.40;99.90
6666;DHT22;3369;49.906;8.598;2022-11-11T19:29:17;7.40;99.90
6666;DHT22;3369;49.906;8.598;2022-11-11T19:31:43;7.30;99.90
6666;DHT22;3369;49.906;8.598;2022-11-11T19:34:09;7.30;99.90
6666;DHT22;3369;49.906;8.598;2022-11-11T19:36:35;7.40;99.90
6666;DHT22;3369;49.906;8.598;2022-11-11T19:39:02;7.30;99.90
6666;DHT22;3369;49.906;8.598;2022-11-11T19:41:29;7.30;99.90
6666;DHT22;3369;49.906;8.598;2022-11-11T19:43:55;7.30;99.90
6666;DHT22;3369;49.906;8.598;2022-11-11T19:46:22;7.30;99.90
6666;DHT22;3369;49.906;8.598;2022-11-11T19:48:55;7.20;99.90
6666;DHT22;3369;49.906;8.598;2022-11-11T19:51:23;7.20;99.90
6666;DHT22;3369;49.906;8.598;2022-11-11T19:53:49;7.20;99.90
6666;DHT22;3369;49.906;8.598;2022-11-11T19:56:17;7.10;99.90
6666;DHT22;3369;49.906;8.598;2022-11-11T19:58:43;7.10;99.90
6666;DHT22;3369;49.906;8.598;2022-11-11T20:01:15;7.10;99.90
6666;DHT22;3369;49.906;8.598;2022-11-11T20:03:41;7.10;99.90
6666;DHT22;3369;49.906;8.598;2022-11-11T20:06:27;7.10;99.90